Time,TemperatureF,DewpointF,PressureIn,WindDirection,WindDirectionDegrees,WindSpeedMPH,WindSpeedGustMPH,Humidity,HourlyPrecipIn,Conditions,Clouds,dailyrainin,SoftwareType,DateUTC
2013-02-09 00:03:00,52.5,22.8,29.85,ESE,112,3.6,5.8,31,0.00,,,0.00,VWS V14.01,2013-02-09 08:03:00,
2013-02-09 00:08:00,52.3,22.6,29.85,WSW,248,5.4,5.8,31,0.00,,,0.00,VWS V14.01,2013-02-09 08:08:00,
2013-02-09 00:13:00,52.3,22.6,29.85,ESE,112,8.7,8.7,31,0.00,,,0.00,VWS V14.01,2013-02-09 08:13:00,
2013-02-09 00:18:00,52.3,22.6,29.85,SE,135,4.0,4.0,31,0.00,,,0.00,VWS V14.01,2013-02-09 08:18:00,
2013-02-09 00:23:00,52.2,22.5,29.85,ESE,112,8.7,8.7,31,0.00,,,0.00,VWS V14.01,2013-02-09 08:23:00,
2013-02-09 00:28:00,52.3,22.6,29.85,SE,135,10.5,10.5,31,0.00,,,0.00,VWS V14.01,2013-02-09 08:28:00,
2013-02-09 00:33:00,52.3,22.6,29.85,SE,135,4.9,8.3,31,0.00,,,0.00,VWS V14.01,2013-02-09 08:33:00,
2013-02-09 00:39:00,52.3,22.6,29.85,SSE,158,6.3,7.2,31,0.00,,,0.00,VWS V14.01,2013-02-09 08:39:00,
2013-02-09 00:44:00,52.3,22.6,29.85,ESE,112,5.8,5.8,31,0.00,,,0.00,VWS V14.01,2013-02-09 08:44:00,
2013-02-09 00:49:00,52.2,22.5,29.85,SE,135,2.7,7.6,31,0.00,,,0.00,VWS V14.01,2013-02-09 08:49:00,
2013-02-09 00:54:00,52.2,22.5,29.85,ENE,68,8.3,8.3,31,0.00,,,0.00,VWS V14.01,2013-02-09 08:54:00,
2013-02-09 00:59:00,52.0,22.3,29.85,ENE,68,6.3,6.3,31,0.00,,,0.00,VWS V14.01,2013-02-09 08:59:00,
2013-02-09 01:04:00,51.8,22.1,29.85,SSW,202,4.5,7.6,31,0.00,,,0.00,VWS V14.01,2013-02-09 09:04:00,
2013-02-09 01:09:00,51.6,22.7,29.85,ESE,112,5.8,7.2,32,0.00,,,0.00,VWS V14.01,2013-02-09 09:09:00,
2013-02-09 01:15:00,51.6,22.7,29.88,SSE,158,2.7,3.6,32,0.00,,,0.00,VWS V14.01,2013-02-09 09:15:00,
2013-02-09 01:20:00,51.4,22.6,29.88,East,90,3.1,4.9,32,0.00,,,0.00,VWS V14.01,2013-02-09 09:20:00,
2013-02-09 01:25:00,51.4,22.6,29.88,SSE,158,4.0,4.9,32,0.00,,,0.00,VWS V14.01,2013-02-09 09:25:00,
2013-02-09 01:30:00,51.3,23.2,29.88,SSW,202,4.0,4.0,33,0.00,,,0.00,VWS V14.01,2013-02-09 09:30:00,
2013-02-09 01:36:00,51.1,23.0,29.88,SE,135,3.1,3.1,33,0.00,,,0.00,VWS V14.01,2013-02-09 09:36:00,
2013-02-09 01:41:00,50.9,23.5,29.88,South,180,3.6,3.6,34,0.00,,,0.00,VWS V14.01,2013-02-09 09:41:00,
2013-02-09 01:46:00,50.5,23.9,29.88,NNE,22,2.2,2.2,35,0.00,,,0.00,VWS V14.01,2013-02-09 09:46:00,
2013-02-09 01:51:00,50.5,24.6,29.88,South,180,3.6,3.6,36,0.00,,,0.00,VWS V14.01,2013-02-09 09:51:00,
2013-02-09 01:57:00,50.5,24.6,29.88,ESE,112,3.1,3.6,36,0.00,,,0.00,VWS V14.01,2013-02-09 09:57:00,
2013-02-09 02:02:00,50.4,25.1,29.88,ESE,112,2.2,3.1,37,0.00,,,0.00,VWS V14.01,2013-02-09 10:02:00,
2013-02-09 02:07:00,50.4,25.7,29.88,SSE,158,3.1,4.0,38,0.00,,,0.00,VWS V14.01,2013-02-09 10:07:00,
2013-02-09 02:12:00,50.2,25.6,29.88,SSE,158,2.7,2.7,38,0.00,,,0.00,VWS V14.01,2013-02-09 10:12:00,
2013-02-09 02:17:00,50.0,26.0,29.88,NNE,22,0.0,3.6,39,0.00,,,0.00,VWS V14.01,2013-02-09 10:17:00,
2013-02-09 02:22:00,49.8,25.9,29.88,SSW,202,2.2,2.7,39,0.00,,,0.00,VWS V14.01,2013-02-09 10:22:00,
2013-02-09 02:27:00,49.8,26.5,29.88,NE,45,0.0,0.0,40,0.00,,,0.00,VWS V14.01,2013-02-09 10:27:00,
2013-02-09 02:32:00,49.6,26.9,29.88,NNE,22,0.0,0.0,41,0.00,,,0.00,VWS V14.01,2013-02-09 10:32:00,
2013-02-09 02:37:00,49.5,27.3,29.88,ESE,112,0.0,0.0,42,0.00,,,0.00,VWS V14.01,2013-02-09 10:37:00,
2013-02-09 02:42:00,49.5,27.3,29.88,ESE,112,0.0,2.7,42,0.00,,,0.00,VWS V14.01,2013-02-09 10:42:00,
2013-02-09 02:47:00,49.3,26.6,29.88,NE,45,2.2,3.6,41,0.00,,,0.00,VWS V14.01,2013-02-09 10:47:00,
2013-02-09 02:52:00,49.5,26.2,29.88,ESE,112,4.0,4.0,40,0.00,,,0.00,VWS V14.01,2013-02-09 10:52:00,
2013-02-09 02:58:00,49.6,26.3,29.88,East,90,2.7,4.9,40,0.00,,,0.00,VWS V14.01,2013-02-09 10:58:00,
2013-02-09 03:03:00,49.8,25.9,29.88,ESE,112,3.6,4.5,39,0.00,,,0.00,VWS V14.01,2013-02-09 11:03:00,
2013-02-09 03:08:00,50.0,25.4,29.88,ESE,112,2.7,2.7,38,0.00,,,0.00,VWS V14.01,2013-02-09 11:08:00,
2013-02-09 03:13:00,50.0,25.4,29.88,SE,135,4.9,4.9,38,0.00,,,0.00,VWS V14.01,2013-02-09 11:13:00,
2013-02-09 03:18:00,50.0,25.4,29.88,ESE,112,2.7,3.6,38,0.00,,,0.00,VWS V14.01,2013-02-09 11:18:00,
2013-02-09 03:24:00,50.0,25.4,29.88,SSE,158,3.6,5.4,38,0.00,,,0.00,VWS V14.01,2013-02-09 11:24:00,
2013-02-09 03:29:00,49.8,25.2,29.88,SSW,202,3.6,3.6,38,0.00,,,0.00,VWS V14.01,2013-02-09 11:29:00,
2013-02-09 03:34:00,49.8,25.9,29.88,SSE,158,3.6,3.6,39,0.00,,,0.00,VWS V14.01,2013-02-09 11:34:00,
2013-02-09 03:39:00,49.8,25.9,29.88,NE,45,4.0,4.0,39,0.00,,,0.00,VWS V14.01,2013-02-09 11:39:00,
2013-02-09 03:44:00,50.0,25.4,29.88,South,180,3.6,3.6,38,0.00,,,0.00,VWS V14.01,2013-02-09 11:44:00,
2013-02-09 03:49:00,50.0,25.4,29.88,South,180,2.7,2.7,38,0.00,,,0.00,VWS V14.01,2013-02-09 11:49:00,
2013-02-09 03:54:00,50.2,25.6,29.88,NNE,22,2.7,2.7,38,0.00,,,0.00,VWS V14.01,2013-02-09 11:54:00,
2013-02-09 04:00:00,50.0,25.4,29.88,NE,45,2.7,2.7,38,0.00,,,0.00,VWS V14.01,2013-02-09 12:00:00,
2013-02-09 04:05:00,50.0,25.4,29.88,South,180,3.6,3.6,38,0.00,,,0.00,VWS V14.01,2013-02-09 12:05:00,
2013-02-09 04:10:00,49.8,25.9,29.88,ENE,68,2.7,4.0,39,0.00,,,0.00,VWS V14.01,2013-02-09 12:10:00,
2013-02-09 04:15:00,49.8,25.9,29.88,SSE,158,4.0,4.0,39,0.00,,,0.00,VWS V14.01,2013-02-09 12:15:00,
2013-02-09 04:20:00,49.6,25.7,29.88,SSE,158,2.7,4.0,39,0.00,,,0.00,VWS V14.01,2013-02-09 12:20:00,
2013-02-09 04:25:00,49.8,25.9,29.88,WSW,248,3.1,3.1,39,0.00,,,0.00,VWS V14.01,2013-02-09 12:25:00,
2013-02-09 04:31:00,49.8,25.2,29.88,WSW,248,2.7,2.7,38,0.00,,,0.00,VWS V14.01,2013-02-09 12:31:00,
2013-02-09 04:36:00,50.0,24.8,29.88,SSE,158,0.0,3.1,37,0.00,,,0.00,VWS V14.01,2013-02-09 12:36:00,
2013-02-09 04:41:00,50.0,24.8,29.88,SSW,202,0.0,2.2,37,0.00,,,0.00,VWS V14.01,2013-02-09 12:41:00,
2013-02-09 04:46:00,49.6,25.1,29.88,ESE,112,3.1,3.1,38,0.00,,,0.00,VWS V14.01,2013-02-09 12:46:00,
2013-02-09 04:51:00,49.5,25.5,29.88,SSE,158,2.2,2.7,39,0.00,,,0.00,VWS V14.01,2013-02-09 12:51:00,
2013-02-09 04:56:00,49.1,25.2,29.88,SE,135,0.0,2.2,39,0.00,,,0.00,VWS V14.01,2013-02-09 12:56:00,
2013-02-09 05:01:00,49.3,25.4,29.88,SE,135,0.0,3.1,39,0.00,,,0.00,VWS V14.01,2013-02-09 13:01:00,
2013-02-09 05:07:00,49.1,25.2,29.88,SSE,158,0.0,0.0,39,0.00,,,0.00,VWS V14.01,2013-02-09 13:07:00,
2013-02-09 05:12:00,49.1,25.2,29.88,SE,135,3.1,3.1,39,0.00,,,0.00,VWS V14.01,2013-02-09 13:12:00,
2013-02-09 05:17:00,49.1,25.2,29.88,SE,135,2.7,2.7,39,0.00,,,0.00,VWS V14.01,2013-02-09 13:17:00,
2013-02-09 05:22:00,48.9,24.5,29.88,SSW,202,2.2,2.2,38,0.00,,,0.00,VWS V14.01,2013-02-09 13:22:00,
2013-02-09 05:28:00,48.9,24.5,29.88,SSE,158,0.0,0.0,38,0.00,,,0.00,VWS V14.01,2013-02-09 13:28:00,
2013-02-09 05:33:00,48.9,23.8,29.88,SSE,158,0.0,0.0,37,0.00,,,0.00,VWS V14.01,2013-02-09 13:33:00,
2013-02-09 05:38:00,48.9,24.5,29.88,NE,45,2.7,2.7,38,0.00,,,0.00,VWS V14.01,2013-02-09 13:38:00,
2013-02-09 05:43:00,48.7,24.9,29.88,NE,45,0.0,0.0,39,0.00,,,0.00,VWS V14.01,2013-02-09 13:43:00,
2013-02-09 05:48:00,48.6,24.7,29.88,NE,45,0.0,0.0,39,0.00,,,0.00,VWS V14.01,2013-02-09 13:48:00,
2013-02-09 05:53:00,48.4,25.2,29.88,NE,45,0.0,0.0,40,0.00,,,0.00,VWS V14.01,2013-02-09 13:53:00,
2013-02-09 05:58:00,48.0,24.9,29.88,NE,45,0.0,0.0,40,0.00,,,0.00,VWS V14.01,2013-02-09 13:58:00,
2013-02-09 06:03:00,48.0,24.9,29.88,NE,45,0.0,0.0,40,0.00,,,0.00,VWS V14.01,2013-02-09 14:03:00,
2013-02-09 06:08:00,48.2,25.0,29.88,SSE,158,3.6,4.0,40,0.00,,,0.00,VWS V14.01,2013-02-09 14:08:00,
2013-02-09 06:13:00,48.6,25.4,29.88,South,180,2.2,2.7,40,0.00,,,0.00,VWS V14.01,2013-02-09 14:13:00,
2013-02-09 06:18:00,48.7,25.5,29.88,SE,135,2.7,2.7,40,0.00,,,0.00,VWS V14.01,2013-02-09 14:18:00,
2013-02-09 06:24:00,48.6,26.0,29.88,NE,45,0.0,0.0,41,0.00,,,0.00,VWS V14.01,2013-02-09 14:24:00,
2013-02-09 06:29:00,48.4,27.5,29.88,NNE,22,0.0,3.1,44,0.00,,,0.00,VWS V14.01,2013-02-09 14:29:00,
2013-02-09 06:34:00,48.0,30.3,29.88,North,0,3.1,4.0,50,0.00,,,0.00,VWS V14.01,2013-02-09 14:34:00,
2013-02-09 06:39:00,47.7,30.0,29.88,NNE,22,2.2,3.1,50,0.00,,,0.00,VWS V14.01,2013-02-09 14:39:00,
2013-02-09 06:44:00,47.5,30.3,29.88,North,0,0.0,0.0,51,0.00,,,0.00,VWS V14.01,2013-02-09 14:44:00,
2013-02-09 06:49:00,47.5,29.8,29.88,NNE,22,2.7,3.1,50,0.00,,,0.00,VWS V14.01,2013-02-09 14:49:00,
2013-02-09 06:54:00,47.5,30.8,29.88,North,0,2.7,2.7,52,0.00,,,0.00,VWS V14.01,2013-02-09 14:54:00,
2013-02-09 07:00:00,47.3,31.0,29.88,NNW,338,2.7,2.7,53,0.00,,,0.00,VWS V14.01,2013-02-09 15:00:00,
2013-02-09 07:05:00,47.1,30.9,29.88,NNW,338,0.0,0.0,53,0.00,,,0.00,VWS V14.01,2013-02-09 15:05:00,
2013-02-09 07:10:00,47.1,31.4,29.88,North,0,4.0,4.0,54,0.00,,,0.00,VWS V14.01,2013-02-09 15:10:00,
2013-02-09 07:15:00,47.1,30.4,29.91,North,0,2.7,3.1,52,0.00,,,0.00,VWS V14.01,2013-02-09 15:15:00,
2013-02-09 07:20:00,47.1,30.4,29.91,NNW,338,0.0,2.2,52,0.00,,,0.00,VWS V14.01,2013-02-09 15:20:00,
2013-02-09 07:26:00,47.3,30.1,29.91,NNE,22,2.2,2.7,51,0.00,,,0.00,VWS V14.01,2013-02-09 15:26:00,
2013-02-09 07:31:00,47.3,30.1,29.88,North,0,2.7,2.7,51,0.00,,,0.00,VWS V14.01,2013-02-09 15:31:00,
2013-02-09 07:36:00,47.5,30.8,29.88,ESE,112,3.1,3.1,52,0.00,,,0.00,VWS V14.01,2013-02-09 15:36:00,
2013-02-09 07:41:00,47.3,30.6,29.88,NNE,22,2.7,2.7,52,0.00,,,0.00,VWS V14.01,2013-02-09 15:41:00,
2013-02-09 07:46:00,47.3,30.6,29.91,NNW,338,0.0,0.0,52,0.00,,,0.00,VWS V14.01,2013-02-09 15:46:00,
2013-02-09 07:51:00,47.3,30.6,29.91,NNW,338,2.2,3.1,52,0.00,,,0.00,VWS V14.01,2013-02-09 15:51:00,
2013-02-09 07:56:00,47.1,30.4,29.91,North,0,2.7,3.1,52,0.00,,,0.00,VWS V14.01,2013-02-09 15:56:00,
2013-02-09 08:01:00,47.1,29.9,29.91,North,0,2.7,2.7,51,0.00,,,0.00,VWS V14.01,2013-02-09 16:01:00,
2013-02-09 08:07:00,47.3,30.1,29.91,NNW,338,2.7,4.0,51,0.00,,,0.00,VWS V14.01,2013-02-09 16:07:00,
2013-02-09 08:12:00,47.1,29.9,29.91,NNW,338,3.1,3.1,51,0.00,,,0.00,VWS V14.01,2013-02-09 16:12:00,
2013-02-09 08:17:00,47.1,29.9,29.91,North,0,3.1,3.6,51,0.00,,,0.00,VWS V14.01,2013-02-09 16:17:00,
2013-02-09 08:22:00,47.1,29.9,29.91,North,0,0.0,0.0,51,0.00,,,0.00,VWS V14.01,2013-02-09 16:22:00,
2013-02-09 08:27:00,47.1,29.5,29.91,NNW,338,0.0,2.2,50,0.00,,,0.00,VWS V14.01,2013-02-09 16:27:00,
2013-02-09 08:32:00,46.9,29.3,29.91,NNW,338,2.2,2.2,50,0.00,,,0.00,VWS V14.01,2013-02-09 16:32:00,
2013-02-09 08:37:00,47.1,29.5,29.91,NNW,338,2.7,2.7,50,0.00,,,0.00,VWS V14.01,2013-02-09 16:37:00,
2013-02-09 08:42:00,47.1,29.5,29.91,North,0,2.7,2.7,50,0.00,,,0.00,VWS V14.01,2013-02-09 16:42:00,
2013-02-09 08:47:00,47.3,29.6,29.91,NNW,338,2.7,3.1,50,0.00,,,0.00,VWS V14.01,2013-02-09 16:47:00,
2013-02-09 08:53:00,47.3,29.6,29.91,NNW,338,3.6,3.6,50,0.00,,,0.00,VWS V14.01,2013-02-09 16:53:00,
2013-02-09 08:58:00,47.3,29.1,29.91,North,0,2.7,2.7,49,0.00,,,0.00,VWS V14.01,2013-02-09 16:58:00,
2013-02-09 09:03:00,47.3,29.1,29.91,North,0,2.2,2.7,49,0.00,,,0.00,VWS V14.01,2013-02-09 17:03:00,
2013-02-09 09:08:00,47.7,29.5,29.91,NNW,338,3.1,3.6,49,0.00,,,0.00,VWS V14.01,2013-02-09 17:08:00,
2013-02-09 09:13:00,47.8,29.6,29.91,NNW,338,2.7,3.6,49,0.00,,,0.00,VWS V14.01,2013-02-09 17:13:00,
2013-02-09 09:18:00,48.0,29.8,29.91,NNW,338,4.0,4.0,49,0.00,,,0.00,VWS V14.01,2013-02-09 17:18:00,
2013-02-09 09:23:00,48.2,30.0,29.91,NNW,338,2.2,4.0,49,0.00,,,0.00,VWS V14.01,2013-02-09 17:23:00,
2013-02-09 09:28:00,48.6,30.3,29.91,NNE,22,2.7,3.1,49,0.00,,,0.00,VWS V14.01,2013-02-09 17:28:00,
2013-02-09 09:33:00,48.7,30.5,29.91,East,90,2.2,3.1,49,0.00,,,0.00,VWS V14.01,2013-02-09 17:33:00,
2013-02-09 09:39:00,48.7,30.5,29.91,East,90,0.0,3.1,49,0.00,,,0.00,VWS V14.01,2013-02-09 17:39:00,
2013-02-09 09:44:00,48.7,30.5,29.91,NE,45,2.2,3.1,49,0.00,,,0.00,VWS V14.01,2013-02-09 17:44:00,
2013-02-09 09:49:00,48.9,30.6,29.91,NNE,22,0.0,2.2,49,0.00,,,0.00,VWS V14.01,2013-02-09 17:49:00,
2013-02-09 09:54:00,48.9,31.1,29.91,NNE,22,0.0,0.0,50,0.00,,,0.00,VWS V14.01,2013-02-09 17:54:00,
2013-02-09 09:59:00,49.5,31.1,29.91,NNE,22,2.2,2.7,49,0.00,,,0.00,VWS V14.01,2013-02-09 17:59:00,
2013-02-09 10:04:00,49.5,30.6,29.91,ENE,68,2.7,2.7,48,0.00,,,0.00,VWS V14.01,2013-02-09 18:04:00,
2013-02-09 10:10:00,49.5,30.6,29.91,ESE,112,3.1,3.1,48,0.00,,,0.00,VWS V14.01,2013-02-09 18:10:00,
2013-02-09 10:15:00,49.5,30.1,29.91,ESE,112,4.0,4.0,47,0.00,,,0.00,VWS V14.01,2013-02-09 18:15:00,
2013-02-09 10:20:00,49.8,30.4,29.91,North,0,2.2,3.6,47,0.00,,,0.00,VWS V14.01,2013-02-09 18:20:00,
2013-02-09 10:25:00,49.8,30.9,29.91,NNE,22,2.7,2.7,48,0.00,,,0.00,VWS V14.01,2013-02-09 18:25:00,
2013-02-09 10:30:00,50.0,31.1,29.94,NNE,22,0.0,0.0,48,0.00,,,0.00,VWS V14.01,2013-02-09 18:30:00,
2013-02-09 10:36:00,50.2,31.8,29.94,NNE,22,2.2,2.2,49,0.00,,,0.00,VWS V14.01,2013-02-09 18:36:00,
2013-02-09 10:41:00,50.4,32.4,29.94,NE,45,0.0,0.0,50,0.00,,,0.00,VWS V14.01,2013-02-09 18:41:00,
2013-02-09 10:46:00,50.4,32.9,29.94,NNW,338,3.1,3.1,51,0.00,,,0.00,VWS V14.01,2013-02-09 18:46:00,
2013-02-09 10:51:00,50.2,31.3,29.94,NNE,22,2.2,3.6,48,0.00,,,0.00,VWS V14.01,2013-02-09 18:51:00,
2013-02-09 10:56:00,50.2,29.7,29.94,North,0,3.1,4.0,45,0.00,,,0.00,VWS V14.01,2013-02-09 18:56:00,
2013-02-09 11:02:00,50.5,27.7,29.94,NNW,338,3.1,3.1,41,0.00,,,0.00,VWS V14.01,2013-02-09 19:02:00,
2013-02-09 11:07:00,50.7,27.3,29.94,NNE,22,3.6,3.6,40,0.00,,,0.00,VWS V14.01,2013-02-09 19:07:00,
2013-02-09 11:12:00,50.9,27.5,29.94,NNW,338,2.7,3.1,40,0.00,,,0.00,VWS V14.01,2013-02-09 19:12:00,
2013-02-09 11:17:00,51.1,27.6,29.91,NNW,338,3.1,4.0,40,0.00,,,0.00,VWS V14.01,2013-02-09 19:17:00,
2013-02-09 11:22:00,51.4,27.9,29.91,North,0,3.1,3.6,40,0.00,,,0.00,VWS V14.01,2013-02-09 19:22:00,
2013-02-09 11:27:00,51.4,27.9,29.94,North,0,2.7,3.1,40,0.00,,,0.00,VWS V14.01,2013-02-09 19:27:00,
2013-02-09 11:32:00,51.4,27.3,29.94,North,0,2.2,3.1,39,0.00,,,0.00,VWS V14.01,2013-02-09 19:32:00,
2013-02-09 11:38:00,51.6,27.5,29.94,North,0,3.1,3.6,39,0.00,,,0.00,VWS V14.01,2013-02-09 19:38:00,
2013-02-09 11:43:00,51.8,27.0,29.94,NNW,338,0.0,2.2,38,0.00,,,0.00,VWS V14.01,2013-02-09 19:43:00,
2013-02-09 11:48:00,52.3,26.2,29.94,NNW,338,0.0,0.0,36,0.00,,,0.00,VWS V14.01,2013-02-09 19:48:00,
2013-02-09 11:53:00,52.7,25.1,29.94,NE,45,2.7,2.7,34,0.00,,,0.00,VWS V14.01,2013-02-09 19:53:00,
2013-02-09 11:59:00,52.7,24.4,29.91,NNE,22,3.1,3.1,33,0.00,,,0.00,VWS V14.01,2013-02-09 19:59:00,
2013-02-09 12:04:00,52.9,23.9,29.91,ESE,112,2.7,3.6,32,0.00,,,0.00,VWS V14.01,2013-02-09 20:04:00,
2013-02-09 12:09:00,52.9,23.1,29.91,NNE,22,3.1,4.5,31,0.00,,,0.00,VWS V14.01,2013-02-09 20:09:00,
2013-02-09 12:14:00,53.2,23.4,29.94,WNW,292,2.7,2.7,31,0.00,,,0.00,VWS V14.01,2013-02-09 20:14:00,
2013-02-09 12:19:00,53.6,22.1,29.94,NNE,22,3.6,4.9,29,0.00,,,0.00,VWS V14.01,2013-02-09 20:19:00,
2013-02-09 12:24:00,53.8,22.3,29.94,NE,45,5.4,5.4,29,0.00,,,0.00,VWS V14.01,2013-02-09 20:24:00,
2013-02-09 12:30:00,53.8,21.5,29.91,NE,45,3.6,4.5,28,0.00,,,0.00,VWS V14.01,2013-02-09 20:30:00,
2013-02-09 12:35:00,54.0,21.6,29.91,NNE,22,2.7,2.7,28,0.00,,,0.00,VWS V14.01,2013-02-09 20:35:00,
2013-02-09 12:40:00,55.0,22.5,29.91,NNE,22,2.7,2.7,28,0.00,,,0.00,VWS V14.01,2013-02-09 20:40:00,
2013-02-09 12:45:00,55.9,22.5,29.91,East,90,2.2,3.1,27,0.00,,,0.00,VWS V14.01,2013-02-09 20:45:00,
2013-02-09 12:51:00,57.2,23.5,29.91,ENE,68,0.0,2.2,27,0.00,,,0.00,VWS V14.01,2013-02-09 20:51:00,
2013-02-09 12:56:00,57.9,24.2,29.91,ESE,112,0.0,2.7,27,0.00,,,0.00,VWS V14.01,2013-02-09 20:56:00,
2013-02-09 13:01:00,57.9,24.2,29.91,ENE,68,2.7,5.4,27,0.00,,,0.00,VWS V14.01,2013-02-09 21:01:00,
2013-02-09 13:06:00,57.9,24.2,29.91,NNE,22,3.1,6.3,27,0.00,,,0.00,VWS V14.01,2013-02-09 21:06:00,
2013-02-09 13:11:00,58.5,24.6,29.91,NNE,22,4.0,4.0,27,0.00,,,0.00,VWS V14.01,2013-02-09 21:11:00,
2013-02-09 13:16:00,58.8,24.0,29.91,NNE,22,4.0,4.0,26,0.00,,,0.00,VWS V14.01,2013-02-09 21:16:00,
2013-02-09 13:22:00,59.4,24.5,29.91,NNE,22,3.6,3.6,26,0.00,,,0.00,VWS V14.01,2013-02-09 21:22:00,
2013-02-09 13:27:00,59.2,24.3,29.91,NNE,22,4.0,5.4,26,0.00,,,0.00,VWS V14.01,2013-02-09 21:27:00,
2013-02-09 13:32:00,59.4,24.5,29.91,North,0,2.7,3.1,26,0.00,,,0.00,VWS V14.01,2013-02-09 21:32:00,
2013-02-09 13:37:00,59.2,24.3,29.91,North,0,4.0,4.0,26,0.00,,,0.00,VWS V14.01,2013-02-09 21:37:00,
2013-02-09 13:43:00,58.5,23.7,29.91,East,90,2.2,3.6,26,0.00,,,0.00,VWS V14.01,2013-02-09 21:43:00,
2013-02-09 13:48:00,57.4,22.8,29.91,NNW,338,4.9,5.4,26,0.00,,,0.00,VWS V14.01,2013-02-09 21:48:00,
2013-02-09 13:53:00,56.7,23.1,29.91,NE,45,4.9,5.4,27,0.00,,,0.00,VWS V14.01,2013-02-09 21:53:00,
2013-02-09 13:58:00,56.8,23.2,29.91,NNE,22,0.0,0.0,27,0.00,,,0.00,VWS V14.01,2013-02-09 21:58:00,
2013-02-09 14:03:00,56.7,23.1,29.91,NNE,22,4.9,4.9,27,0.00,,,0.00,VWS V14.01,2013-02-09 22:03:00,
2013-02-09 14:08:00,56.5,22.9,29.91,SSE,158,2.2,2.2,27,0.00,,,0.00,VWS V14.01,2013-02-09 22:08:00,
2013-02-09 14:13:00,56.1,22.6,29.91,ENE,68,2.7,4.9,27,0.00,,,0.00,VWS V14.01,2013-02-09 22:13:00,
2013-02-09 14:18:00,56.1,22.6,29.91,NE,45,3.1,3.6,27,0.00,,,0.00,VWS V14.01,2013-02-09 22:18:00,
2013-02-09 14:24:00,56.1,22.6,29.91,East,90,0.0,2.2,27,0.00,,,0.00,VWS V14.01,2013-02-09 22:24:00,
2013-02-09 14:29:00,56.3,22.8,29.91,SSW,202,0.0,3.6,27,0.00,,,0.00,VWS V14.01,2013-02-09 22:29:00,
2013-02-09 14:34:00,56.3,22.8,29.91,ESE,112,4.9,5.4,27,0.00,,,0.00,VWS V14.01,2013-02-09 22:34:00,
2013-02-09 14:39:00,56.3,22.8,29.91,ESE,112,0.0,0.0,27,0.00,,,0.00,VWS V14.01,2013-02-09 22:39:00,
2013-02-09 14:44:00,56.5,22.9,29.88,South,180,3.1,3.1,27,0.00,,,0.00,VWS V14.01,2013-02-09 22:44:00,
2013-02-09 14:49:00,56.5,22.9,29.88,SSW,202,0.0,2.7,27,0.00,,,0.00,VWS V14.01,2013-02-09 22:49:00,
2013-02-09 14:55:00,56.7,23.1,29.88,SSW,202,0.0,2.2,27,0.00,,,0.00,VWS V14.01,2013-02-09 22:55:00,
2013-02-09 15:00:00,56.7,24.0,29.91,SSW,202,0.0,0.0,28,0.00,,,0.00,VWS V14.01,2013-02-09 23:00:00,
2013-02-09 15:05:00,56.5,23.8,29.91,NNW,338,0.0,2.2,28,0.00,,,0.00,VWS V14.01,2013-02-09 23:05:00,
2013-02-09 15:10:00,56.3,23.6,29.91,NNE,22,0.0,3.6,28,0.00,,,0.00,VWS V14.01,2013-02-09 23:10:00,
2013-02-09 15:16:00,56.3,23.6,29.88,NNW,338,2.2,3.1,28,0.00,,,0.00,VWS V14.01,2013-02-09 23:16:00,
2013-02-09 15:21:00,56.3,23.6,29.88,NNW,338,4.9,4.9,28,0.00,,,0.00,VWS V14.01,2013-02-09 23:21:00,
2013-02-09 15:26:00,56.1,28.1,29.88,South,180,3.1,3.1,34,0.00,,,0.00,VWS V14.01,2013-02-09 23:26:00,
2013-02-09 15:31:00,56.1,28.9,29.91,ENE,68,2.2,2.2,35,0.00,,,0.00,VWS V14.01,2013-02-09 23:31:00,
2013-02-09 15:36:00,55.9,29.4,29.91,SE,135,0.0,0.0,36,0.00,,,0.00,VWS V14.01,2013-02-09 23:36:00,
2013-02-09 15:41:00,55.9,30.1,29.91,SE,135,0.0,0.0,37,0.00,,,0.00,VWS V14.01,2013-02-09 23:41:00,
2013-02-09 15:46:00,55.6,29.7,29.91,SSE,158,3.1,3.1,37,0.00,,,0.00,VWS V14.01,2013-02-09 23:46:00,
2013-02-09 15:51:00,55.4,29.6,29.91,ENE,68,0.0,2.2,37,0.00,,,0.00,VWS V14.01,2013-02-09 23:51:00,
2013-02-09 15:56:00,55.2,29.4,29.91,SW,225,3.1,4.0,37,0.00,,,0.00,VWS V14.01,2013-02-09 23:56:00,
2013-02-09 16:01:00,55.2,29.4,29.91,ESE,112,2.2,2.7,37,0.00,,,0.00,VWS V14.01,2013-02-10 00:01:00,
2013-02-09 16:07:00,56.1,28.1,29.91,SSW,202,2.2,2.7,34,0.00,,,0.00,VWS V14.01,2013-02-10 00:07:00,
2013-02-09 16:12:00,56.1,27.4,29.91,SSW,202,2.2,2.7,33,0.00,,,0.00,VWS V14.01,2013-02-10 00:12:00,
2013-02-09 16:17:00,55.6,25.5,29.91,SSE,158,0.0,2.2,31,0.00,,,0.00,VWS V14.01,2013-02-10 00:17:00,
2013-02-09 16:22:00,55.0,25.7,29.91,SSW,202,2.2,3.1,32,0.00,,,0.00,VWS V14.01,2013-02-10 00:22:00,
2013-02-09 16:28:00,54.9,25.6,29.91,SSW,202,3.6,3.6,32,0.00,,,0.00,VWS V14.01,2013-02-10 00:28:00,
2013-02-09 16:33:00,54.7,25.4,29.91,South,180,2.2,2.2,32,0.00,,,0.00,VWS V14.01,2013-02-10 00:33:00,
2013-02-09 16:38:00,54.5,24.5,29.91,SSW,202,2.7,2.7,31,0.00,,,0.00,VWS V14.01,2013-02-10 00:38:00,
2013-02-09 16:43:00,54.0,24.0,29.91,SSW,202,3.1,3.6,31,0.00,,,0.00,VWS V14.01,2013-02-10 00:43:00,
2013-02-09 16:48:00,53.6,23.7,29.91,SSW,202,3.1,3.1,31,0.00,,,0.00,VWS V14.01,2013-02-10 00:48:00,
2013-02-09 16:54:00,53.8,23.9,29.91,South,180,0.0,2.2,31,0.00,,,0.00,VWS V14.01,2013-02-10 00:54:00,
2013-02-09 16:59:00,53.8,23.9,29.91,SSW,202,5.8,5.8,31,0.00,,,0.00,VWS V14.01,2013-02-10 00:59:00,
2013-02-09 17:04:00,53.6,23.7,29.91,SSW,202,3.6,3.6,31,0.00,,,0.00,VWS V14.01,2013-02-10 01:04:00,
2013-02-09 17:09:00,53.4,23.6,29.91,SSW,202,2.7,3.6,31,0.00,,,0.00,VWS V14.01,2013-02-10 01:09:00,
2013-02-09 17:14:00,53.2,23.4,29.91,South,180,3.6,3.6,31,0.00,,,0.00,VWS V14.01,2013-02-10 01:14:00,
2013-02-09 17:20:00,53.4,24.3,29.91,WSW,248,0.0,2.7,32,0.00,,,0.00,VWS V14.01,2013-02-10 01:20:00,
2013-02-09 17:25:00,53.4,24.3,29.91,SSW,202,4.0,4.0,32,0.00,,,0.00,VWS V14.01,2013-02-10 01:25:00,
2013-02-09 17:30:00,53.1,24.0,29.91,SSW,202,2.7,3.1,32,0.00,,,0.00,VWS V14.01,2013-02-10 01:30:00,
2013-02-09 17:35:00,52.7,24.4,29.91,SW,225,2.7,5.4,33,0.00,,,0.00,VWS V14.01,2013-02-10 01:35:00,
2013-02-09 17:40:00,52.7,24.4,29.91,SSW,202,2.7,4.0,33,0.00,,,0.00,VWS V14.01,2013-02-10 01:40:00,
2013-02-09 17:45:00,52.5,23.5,29.91,SSW,202,0.0,3.1,32,0.00,,,0.00,VWS V14.01,2013-02-10 01:45:00,
2013-02-09 17:51:00,52.5,22.8,29.91,SSW,202,4.0,5.4,31,0.00,,,0.00,VWS V14.01,2013-02-10 01:51:00,
2013-02-09 17:56:00,52.5,22.8,29.91,SW,225,4.0,4.0,31,0.00,,,0.00,VWS V14.01,2013-02-10 01:56:00,
2013-02-09 18:01:00,52.3,22.6,29.91,SSW,202,3.6,4.0,31,0.00,,,0.00,VWS V14.01,2013-02-10 02:01:00,
2013-02-09 18:07:00,52.2,23.2,29.91,SSW,202,3.1,3.1,32,0.00,,,0.00,VWS V14.01,2013-02-10 02:07:00,
2013-02-09 18:12:00,52.2,23.2,29.91,SSW,202,2.2,3.6,32,0.00,,,0.00,VWS V14.01,2013-02-10 02:12:00,
2013-02-09 18:17:00,52.2,23.2,29.91,SSW,202,3.6,3.6,32,0.00,,,0.00,VWS V14.01,2013-02-10 02:17:00,
2013-02-09 18:22:00,52.2,23.2,29.91,SSW,202,2.7,2.7,32,0.00,,,0.00,VWS V14.01,2013-02-10 02:22:00,
2013-02-09 18:27:00,52.0,23.1,29.91,SSW,202,2.2,2.2,32,0.00,,,0.00,VWS V14.01,2013-02-10 02:27:00,
2013-02-09 18:33:00,51.8,23.6,29.91,SSW,202,0.0,0.0,33,0.00,,,0.00,VWS V14.01,2013-02-10 02:33:00,
2013-02-09 18:38:00,51.6,24.2,29.91,SSW,202,3.6,3.6,34,0.00,,,0.00,VWS V14.01,2013-02-10 02:38:00,
2013-02-09 18:43:00,51.6,23.5,29.91,SSW,202,3.1,4.5,33,0.00,,,0.00,VWS V14.01,2013-02-10 02:43:00,
2013-02-09 18:48:00,51.8,23.6,29.91,SSW,202,2.2,4.0,33,0.00,,,0.00,VWS V14.01,2013-02-10 02:48:00,
2013-02-09 18:53:00,51.6,23.5,29.91,SSW,202,0.0,2.7,33,0.00,,,0.00,VWS V14.01,2013-02-10 02:53:00,
2013-02-09 18:58:00,51.4,23.3,29.94,SSW,202,2.7,2.7,33,0.00,,,0.00,VWS V14.01,2013-02-10 02:58:00,
2013-02-09 19:03:00,51.4,23.3,29.94,SW,225,2.7,4.0,33,0.00,,,0.00,VWS V14.01,2013-02-10 03:03:00,
2013-02-09 19:09:00,51.4,23.3,29.94,South,180,0.0,3.1,33,0.00,,,0.00,VWS V14.01,2013-02-10 03:09:00,
2013-02-09 19:14:00,51.6,23.5,29.94,SSW,202,4.9,4.9,33,0.00,,,0.00,VWS V14.01,2013-02-10 03:14:00,
2013-02-09 19:19:00,51.6,22.7,29.94,SW,225,0.0,3.1,32,0.00,,,0.00,VWS V14.01,2013-02-10 03:19:00,
2013-02-09 19:25:00,51.3,22.4,29.94,WSW,248,3.6,3.6,32,0.00,,,0.00,VWS V14.01,2013-02-10 03:25:00,
2013-02-09 19:30:00,51.3,22.4,29.94,SSW,202,4.0,4.0,32,0.00,,,0.00,VWS V14.01,2013-02-10 03:30:00,
2013-02-09 19:35:00,51.3,22.4,29.94,SW,225,0.0,0.0,32,0.00,,,0.00,VWS V14.01,2013-02-10 03:35:00,
2013-02-09 19:40:00,51.6,22.7,29.94,SSW,202,0.0,0.0,32,0.00,,,0.00,VWS V14.01,2013-02-10 03:40:00,
2013-02-09 19:45:00,51.6,22.7,29.94,South,180,0.0,2.7,32,0.00,,,0.00,VWS V14.01,2013-02-10 03:45:00,
2013-02-09 19:50:00,51.6,22.7,29.94,ESE,112,2.2,3.1,32,0.00,,,0.00,VWS V14.01,2013-02-10 03:50:00,
2013-02-09 19:56:00,51.4,22.6,29.94,NE,45,3.1,3.1,32,0.00,,,0.00,VWS V14.01,2013-02-10 03:56:00,
2013-02-09 20:01:00,51.6,22.7,29.94,ENE,68,0.0,2.7,32,0.00,,,0.00,VWS V14.01,2013-02-10 04:01:00,
2013-02-09 20:06:00,51.6,22.0,29.94,ENE,68,0.0,0.0,31,0.00,,,0.00,VWS V14.01,2013-02-10 04:06:00,
2013-02-09 20:11:00,51.8,22.1,29.94,ENE,68,0.0,0.0,31,0.00,,,0.00,VWS V14.01,2013-02-10 04:11:00,
2013-02-09 20:17:00,51.8,21.4,29.94,ENE,68,0.0,0.0,30,0.00,,,0.00,VWS V14.01,2013-02-10 04:17:00,
2013-02-09 20:22:00,52.0,21.5,29.94,ENE,68,0.0,2.2,30,0.00,,,0.00,VWS V14.01,2013-02-10 04:22:00,
2013-02-09 20:27:00,52.0,21.5,29.94,ENE,68,0.0,0.0,30,0.00,,,0.00,VWS V14.01,2013-02-10 04:27:00,
2013-02-09 20:32:00,52.0,21.5,29.94,ENE,68,0.0,0.0,30,0.00,,,0.00,VWS V14.01,2013-02-10 04:32:00,
2013-02-09 20:37:00,52.2,21.7,29.94,ENE,68,2.7,2.7,30,0.00,,,0.00,VWS V14.01,2013-02-10 04:37:00,
2013-02-09 20:42:00,52.0,21.5,29.94,ENE,68,2.2,2.2,30,0.00,,,0.00,VWS V14.01,2013-02-10 04:42:00,
2013-02-09 20:47:00,51.8,21.4,29.94,SSE,158,0.0,0.0,30,0.00,,,0.00,VWS V14.01,2013-02-10 04:47:00,
2013-02-09 20:53:00,51.6,21.2,29.94,SSE,158,0.0,2.2,30,0.00,,,0.00,VWS V14.01,2013-02-10 04:53:00,
2013-02-09 20:58:00,51.6,21.2,29.97,South,180,0.0,0.0,30,0.00,,,0.00,VWS V14.01,2013-02-10 04:58:00,
2013-02-09 21:00:00,51.6,21.2,29.97,East,90,0.0,0.0,30,0.00,,,0.00,VWS V14.01,2013-02-10 05:00:00,
2013-02-09 21:01:00,51.6,21.2,29.97,ENE,68,0.0,2.7,30,0.00,,,0.00,VWS V14.01,2013-02-10 05:01:00,
2013-02-09 21:04:00,51.6,21.2,29.97,ENE,68,0.0,0.0,30,0.00,,,0.00,VWS V14.01,2013-02-10 05:04:00,
2013-02-09 21:09:00,51.6,21.2,29.97,ENE,68,0.0,0.0,30,0.00,,,0.00,VWS V14.01,2013-02-10 05:09:00,
2013-02-09 21:14:00,51.6,21.2,29.94,ENE,68,0.0,0.0,30,0.00,,,0.00,VWS V14.01,2013-02-10 05:14:00,
2013-02-09 21:19:00,51.4,21.1,29.94,ENE,68,0.0,0.0,30,0.00,,,0.00,VWS V14.01,2013-02-10 05:19:00,
2013-02-09 21:24:00,51.4,21.1,29.94,ENE,68,0.0,0.0,30,0.00,,,0.00,VWS V14.01,2013-02-10 05:24:00,
2013-02-09 21:30:00,51.6,21.2,29.94,ENE,68,3.6,3.6,30,0.00,,,0.00,VWS V14.01,2013-02-10 05:30:00,
2013-02-09 21:35:00,51.6,21.2,29.94,ENE,68,0.0,0.0,30,0.00,,,0.00,VWS V14.01,2013-02-10 05:35:00,
2013-02-09 21:40:00,51.8,20.6,29.94,NE,45,2.7,2.7,29,0.00,,,0.00,VWS V14.01,2013-02-10 05:40:00,
2013-02-09 21:45:00,51.8,21.4,29.94,NNE,22,2.7,2.7,30,0.00,,,0.00,VWS V14.01,2013-02-10 05:45:00,
2013-02-09 21:51:00,51.6,21.2,29.94,NNE,22,2.2,2.2,30,0.00,,,0.00,VWS V14.01,2013-02-10 05:51:00,
2013-02-09 21:56:00,51.4,21.1,29.94,NNE,22,0.0,0.0,30,0.00,,,0.00,VWS V14.01,2013-02-10 05:56:00,
2013-02-09 22:01:00,51.3,20.9,29.94,NNE,22,0.0,0.0,30,0.00,,,0.00,VWS V14.01,2013-02-10 06:01:00,
2013-02-09 22:06:00,51.3,21.7,29.94,South,180,2.2,2.2,31,0.00,,,0.00,VWS V14.01,2013-02-10 06:06:00,
2013-02-09 22:11:00,51.3,21.7,29.94,SSE,158,2.2,2.7,31,0.00,,,0.00,VWS V14.01,2013-02-10 06:11:00,
2013-02-09 22:16:00,51.4,21.8,29.94,SSE,158,0.0,0.0,31,0.00,,,0.00,VWS V14.01,2013-02-10 06:16:00,
2013-02-09 22:21:00,51.1,22.3,29.94,SE,135,0.0,0.0,32,0.00,,,0.00,VWS V14.01,2013-02-10 06:21:00,
2013-02-09 22:27:00,51.1,22.3,29.94,SE,135,0.0,0.0,32,0.00,,,0.00,VWS V14.01,2013-02-10 06:27:00,
2013-02-09 22:32:00,50.9,22.8,29.94,SE,135,0.0,0.0,33,0.00,,,0.00,VWS V14.01,2013-02-10 06:32:00,
2013-02-09 22:37:00,50.9,22.8,29.94,SE,135,0.0,0.0,33,0.00,,,0.00,VWS V14.01,2013-02-10 06:37:00,
2013-02-09 22:42:00,50.7,23.4,29.94,North,0,2.7,2.7,34,0.00,,,0.00,VWS V14.01,2013-02-10 06:42:00,
2013-02-09 22:47:00,50.7,23.4,29.94,North,0,2.7,3.1,34,0.00,,,0.00,VWS V14.01,2013-02-10 06:47:00,
2013-02-09 22:52:00,50.7,24.8,29.94,NNE,22,0.0,2.7,36,0.00,,,0.00,VWS V14.01,2013-02-10 06:52:00,
2013-02-09 22:57:00,50.5,25.2,29.94,North,0,0.0,3.1,37,0.00,,,0.00,VWS V14.01,2013-02-10 06:57:00,
2013-02-09 23:02:00,50.4,26.4,29.94,North,0,0.0,0.0,39,0.00,,,0.00,VWS V14.01,2013-02-10 07:02:00,
2013-02-09 23:08:00,50.4,27.0,29.94,North,0,0.0,0.0,40,0.00,,,0.00,VWS V14.01,2013-02-10 07:08:00,
2013-02-09 23:13:00,50.2,26.8,29.94,North,0,0.0,0.0,40,0.00,,,0.00,VWS V14.01,2013-02-10 07:13:00,
2013-02-09 23:18:00,50.2,27.4,29.94,North,0,0.0,0.0,41,0.00,,,0.00,VWS V14.01,2013-02-10 07:18:00,
2013-02-09 23:23:00,50.2,27.4,29.94,North,0,0.0,0.0,41,0.00,,,0.00,VWS V14.01,2013-02-10 07:23:00,
2013-02-09 23:28:00,50.2,26.8,29.94,North,0,0.0,0.0,40,0.00,,,0.00,VWS V14.01,2013-02-10 07:28:00,
2013-02-09 23:33:00,50.0,26.6,29.94,North,0,0.0,0.0,40,0.00,,,0.00,VWS V14.01,2013-02-10 07:33:00,
2013-02-09 23:38:00,50.2,26.8,29.94,North,0,0.0,0.0,40,0.00,,,0.00,VWS V14.01,2013-02-10 07:38:00,
2013-02-09 23:43:00,50.2,26.8,29.94,North,0,0.0,0.0,40,0.00,,,0.00,VWS V14.01,2013-02-10 07:43:00,
2013-02-09 23:48:00,50.4,27.0,29.94,North,0,0.0,0.0,40,0.00,,,0.00,VWS V14.01,2013-02-10 07:48:00,
2013-02-09 23:53:00,50.4,27.0,29.94,North,0,0.0,0.0,40,0.00,,,0.00,VWS V14.01,2013-02-10 07:53:00,
2013-02-09 23:59:00,50.2,26.8,29.94,North,0,2.7,2.7,40,0.00,,,0.00,VWS V14.01,2013-02-10 07:59:00,